Time;durP1;ratioP1;P1;durP2;ratioP2;P2;SDS_P1;SDS_P2;PMS_P1;PMS_P2;Temp;Humidity;BMP_temperature;BMP_pressure;BME280_temperature;BME280_humidity;BME280_pressure;Samples;Min_cycle;Max_cycle;Signal;HPM_P1;HPM_P2
2023/08/28 00:01:30;;;;;;;9.93;5.22;;;;;;;;;;5026440;28;20066;-85
2023/08/28 00:04:10;;;;;;;5.80;4.03;;;;;;;;;;5024504;28;20083;-85
2023/08/28 00:06:45;;;;;;;8.77;5.75;;;;;;;;;;5026150;28;20053;-86
2023/08/28 00:09:32;;;;;;;12.20;5.30;;;;;;;;;;5026380;28;20050;-86
2023/08/28 00:12:07;;;;;;;10.77;5.93;;;;;;;;;;5043233;28;20084;-84
2023/08/28 00:14:38;;;;;;;7.70;5.15;;;;;;;;;;5026822;28;20098;-84
2023/08/28 00:17:20;;;;;;;9.52;5.20;;;;;;;;;;5026116;28;20110;-85
2023/08/28 00:19:50;;;;;;;7.30;5.00;;;;;;;;;;5026064;28;20053;-85
2023/08/28 00:22:18;;;;;;;12.68;5.18;;;;;;;;;;5025250;28;20109;-85
2023/08/28 00:24:46;;;;;;;6.78;4.55;;;;;;;;;;5025571;28;20054;-85
2023/08/28 00:27:14;;;;;;;7.28;5.07;;;;;;;;;;5025214;28;20121;-85
2023/08/28 00:29:45;;;;;;;8.48;5.10;;;;;;;;;;5033705;28;20109;-85
2023/08/28 00:32:20;;;;;;;8.13;4.97;;;;;;;;;;5044368;28;20054;-85
2023/08/28 00:34:52;;;;;;;8.68;5.05;;;;;;;;;;5030792;28;20077;-85
2023/08/28 00:37:20;;;;;;;7.28;4.60;;;;;;;;;;5046181;28;20046;-85
2023/08/28 00:39:48;;;;;;;9.57;5.03;;;;;;;;;;5028700;28;20126;-85
2023/08/28 00:42:20;;;;;;;8.85;5.30;;;;;;;;;;5029118;28;20088;-85
2023/08/28 00:45:02;;;;;;;9.20;5.43;;;;;;;;;;5023460;28;20030;-85
2023/08/28 00:47:37;;;;;;;7.22;5.05;;;;;;;;;;5029000;28;20057;-85
2023/08/28 00:50:08;;;;;;;7.15;4.82;;;;;;;;;;5028547;28;20077;-84
2023/08/28 00:52:35;;;;;;;8.38;5.63;;;;;;;;;;5029455;28;20056;-84
2023/08/28 00:55:12;;;;;;;11.43;5.70;;;;;;;;;;5029530;28;20054;-84
2023/08/28 00:57:52;;;;;;;11.27;5.85;;;;;;;;;;5027780;28;20050;-85
2023/08/28 01:00:22;;;;;;;9.50;6.00;;;;;;;;;;5028555;28;20061;-84
2023/08/28 01:02:53;;;;;;;7.72;5.82;;;;;;;;;;5028551;28;20049;-85
2023/08/28 01:05:29;;;;;;;11.10;5.90;;;;;;;;;;5031950;28;20084;-84
2023/08/28 01:08:12;;;;;;;9.75;5.70;;;;;;;;;;5032637;28;20044;-84
2023/08/28 01:10:47;;;;;;;7.72;5.38;;;;;;;;;;5032464;28;20072;-84
2023/08/28 01:13:18;;;;;;;9.32;4.82;;;;;;;;;;5028548;28;20088;-84
2023/08/28 01:15:53;;;;;;;19.63;7.13;;;;;;;;;;5027343;28;20049;-84
2023/08/28 01:18:22;;;;;;;11.23;6.53;;;;;;;;;;5026927;28;20061;-84
2023/08/28 01:20:51;;;;;;;9.55;5.63;;;;;;;;;;5026999;28;20054;-85
2023/08/28 01:23:32;;;;;;;10.82;6.30;;;;;;;;;;5023304;28;20073;-85
2023/08/28 01:26:00;;;;;;;10.57;6.13;;;;;;;;;;5028279;28;20168;-85
2023/08/28 01:28:28;;;;;;;12.07;5.97;;;;;;;;;;5025915;28;20049;-85
2023/08/28 01:31:13;;;;;;;8.25;6.22;;;;;;;;;;5027076;28;20363;-85
2023/08/28 01:33:43;;;;;;;13.70;6.32;;;;;;;;;;5041513;28;20342;-85
2023/08/28 01:36:31;;;;;;;9.25;5.72;;;;;;;;;;5005725;28;20054;-85
2023/08/28 01:39:04;;;;;;;11.65;6.50;;;;;;;;;;5025644;28;20056;-87
2023/08/28 01:41:33;;;;;;;11.43;6.40;;;;;;;;;;5042270;28;20079;-87
2023/08/28 01:44:10;;;;;;;8.65;5.43;;;;;;;;;;5026495;28;20057;-87
2023/08/28 01:46:44;;;;;;;7.10;5.15;;;;;;;;;;5030195;28;20069;-87
2023/08/28 01:49:14;;;;;;;11.20;5.22;;;;;;;;;;5023501;28;20400;-87
2023/08/28 01:51:45;;;;;;;13.07;5.07;;;;;;;;;;5023197;28;20374;-87
2023/08/28 01:54:14;;;;;;;9.98;5.82;;;;;;;;;;5022604;28;20411;-87
2023/08/28 01:56:46;;;;;;;7.38;4.40;;;;;;;;;;5021967;28;20049;-87
2023/08/28 01:59:19;;;;;;;11.23;6.28;;;;;;;;;;5036938;28;20046;-85
2023/08/28 02:01:48;;;;;;;8.60;5.43;;;;;;;;;;5022655;28;20397;-87
2023/08/28 02:04:20;;;;;;;11.80;4.68;;;;;;;;;;5019882;28;20081;-87
2023/08/28 02:06:55;;;;;;;8.13;4.68;;;;;;;;;;5021816;28;20437;-87
2023/08/28 02:12:54;;;;;;;18.73;5.50;;;;;;;;;;5035183;28;20037;-88
2023/08/28 02:15:41;;;;;;;8.50;5.10;;;;;;;;;;5035622;28;20106;-88
2023/08/28 02:18:12;;;;;;;;;;;;;;;;;;5021320;28;20054;-87
2023/08/28 02:20:43;;;;;;;6.90;5.13;;;;;;;;;;5003765;28;19932;-87
2023/08/28 02:23:11;;;;;;;8.52;5.47;;;;;;;;;;5008846;28;20053;-87
2023/08/28 02:25:46;;;;;;;8.75;6.10;;;;;;;;;;5026469;28;20046;-86
2023/08/28 02:28:18;;;;;;;9.70;6.80;;;;;;;;;;5010048;28;20473;-87
2023/08/28 02:30:45;;;;;;;9.60;6.78;;;;;;;;;;5009218;28;20329;-87
2023/08/28 02:33:14;;;;;;;9.60;7.15;;;;;;;;;;5009644;28;20050;-87
2023/08/28 02:35:43;;;;;;;9.27;6.32;;;;;;;;;;5030170;28;20050;-87
2023/08/28 02:38:14;;;;;;;9.63;6.75;;;;;;;;;;5011273;28;20049;-88
2023/08/28 02:40:41;;;;;;;11.82;7.70;;;;;;;;;;5008547;28;20053;-86
2023/08/28 02:43:09;;;;;;;12.77;7.60;;;;;;;;;;5029213;28;20084;-86
2023/08/28 02:45:40;;;;;;;8.77;6.43;;;;;;;;;;5031591;28;20144;-87
2023/08/28 02:48:10;;;;;;;7.68;6.40;;;;;;;;;;5034843;28;20065;-86
2023/08/28 02:50:50;;;;;;;16.58;7.30;;;;;;;;;;5018898;28;20097;-86
2023/08/28 02:53:23;;;;;;;11.65;7.68;;;;;;;;;;5017227;28;20081;-86
2023/08/28 02:56:14;;;;;;;13.20;7.78;;;;;;;;;;5027467;28;20034;-87
2023/08/28 02:58:47;;;;;;;8.93;6.32;;;;;;;;;;5027147;28;20046;-87
2023/08/28 03:01:16;;;;;;;12.48;7.65;;;;;;;;;;5014396;28;20056;-87
2023/08/28 03:03:44;;;;;;;13.93;7.85;;;;;;;;;;5031774;28;20046;-87
2023/08/28 03:06:12;;;;;;;16.42;7.32;;;;;;;;;;5009273;28;20053;-86
2023/08/28 03:08:42;;;;;;;10.77;7.40;;;;;;;;;;5014741;28;20071;-87
2023/08/28 03:11:23;;;;;;;12.75;8.05;;;;;;;;;;5023202;28;20045;-88
2023/08/28 03:14:00;;;;;;;12.90;7.95;;;;;;;;;;5023229;28;20065;-86
2023/08/28 03:16:42;;;;;;;10.05;7.43;;;;;;;;;;5030618;28;20048;-88
2023/08/28 03:19:24;;;;;;;11.85;7.93;;;;;;;;;;5023231;28;20033;-87
2023/08/28 03:22:05;;;;;;;11.68;7.85;;;;;;;;;;5023225;28;20042;-86
2023/08/28 03:24:48;;;;;;;13.90;8.55;;;;;;;;;;5030038;28;20080;-87
2023/08/28 03:27:26;;;;;;;17.10;8.35;;;;;;;;;;5034409;28;20050;-87
2023/08/28 03:30:10;;;;;;;18.42;8.27;;;;;;;;;;5026679;28;20045;-87
2023/08/28 03:32:39;;;;;;;17.00;9.85;;;;;;;;;;5029052;28;20077;-87
2023/08/28 03:35:13;;;;;;;15.30;9.30;;;;;;;;;;5016387;28;20158;-87
2023/08/28 03:38:19;;;;;;;13.00;9.23;;;;;;;;;;5022569;28;20108;-86
2023/08/28 03:41:26;;;;;;;17.83;9.45;;;;;;;;;;5038215;28;20113;-88
2023/08/28 03:47:41;;;;;;;15.13;10.07;;;;;;;;;;5040246;28;20052;-87
2023/08/28 03:50:42;;;;;;;13.32;9.18;;;;;;;;;;5006887;28;20032;-88
2023/08/28 03:53:31;;;;;;;14.23;8.85;;;;;;;;;;5036609;28;20052;-88
2023/08/28 03:56:09;;;;;;;15.52;9.98;;;;;;;;;;5022945;28;20072;-87
2023/08/28 04:04:26;;;;;;;;;;;;;;;;;;;;;
2023/08/28 04:09:50;;;;;;;13.73;8.98;;;;;;;;;;5072259;22;20037;-86
2023/08/28 04:12:27;;;;;;;18.77;9.75;;;;;;;;;;5220807;22;20130;-87
2023/08/28 04:14:57;;;;;;;15.38;10.32;;;;;;;;;;5037577;28;20056;-88
2023/08/28 04:21:38;;;;;;;;;;;;;;;;;;;;;
2023/08/28 04:40:43;;;;;;;;;;;;;;;;;;;;;
2023/08/28 04:47:22;;;;;;;16.75;11.07;;;;;;;;;;5010776;28;20057;-84
2023/08/28 04:50:20;;;;;;;17.50;10.40;;;;;;;;;;5022181;28;20125;-85
2023/08/28 04:53:06;;;;;;;22.95;12.48;;;;;;;;;;5008533;28;20030;-85
2023/08/28 04:56:01;;;;;;;20.08;12.38;;;;;;;;;;5011365;28;20057;-85
2023/08/28 04:59:09;;;;;;;16.25;12.00;;;;;;;;;;4970705;28;20066;-85
2023/08/28 05:02:33;;;;;;;16.60;11.33;;;;;;;;;;4957133;29;20039;-85
2023/08/28 05:08:45;;;;;;;18.02;11.07;;;;;;;;;;4930100;28;20038;-85
2023/08/28 05:18:51;;;;;;;18.80;13.75;;;;;;;;;;4952844;29;20168;-86
2023/08/28 05:44:11;;;;;;;;;;;;;;;;;;;;;
2023/08/28 05:46:58;;;;;;;8.32;5.10;;;;;;;;;;5024037;28;20049;-86
2023/08/28 05:59:11;;;;;;;6.00;4.72;;;;;;;;;;5042322;28;20064;-84
2023/08/28 06:02:20;;;;;;;;;;;;;;;;;;;;;
2023/08/28 06:05:40;;;;;;;;;;;;;;;;;;;;;
2023/08/28 06:12:25;;;;;;;6.57;4.05;;;;;;;;;;5047482;28;20032;-85
2023/08/28 06:23:52;;;;;;;9.47;4.40;;;;;;;;;;5012919;26;20073;-85
2023/08/28 06:26:55;;;;;;;5.03;4.00;;;;;;;;;;5012164;28;20501;-86
2023/08/28 06:29:41;;;;;;;8.23;4.45;;;;;;;;;;5012246;28;20517;-85
2023/08/28 06:32:44;;;;;;;8.73;4.18;;;;;;;;;;4999646;28;20045;-86
2023/08/28 06:38:46;;;;;;;7.75;4.22;;;;;;;;;;4976667;28;20209;-84
2023/08/28 06:41:27;;;;;;;7.68;3.83;;;;;;;;;;4985595;28;20050;-86
2023/08/28 06:44:47;;;;;;;5.60;3.85;;;;;;;;;;5007805;28;20057;-86
2023/08/28 06:47:39;;;;;;;4.28;3.05;;;;;;;;;;4993256;28;20105;-85
2023/08/28 06:50:47;;;;;;;6.43;3.50;;;;;;;;;;5010388;28;20038;-85
2023/08/28 06:53:51;;;;;;;5.03;3.10;;;;;;;;;;5356474;23;20057;-87
2023/08/28 06:56:35;;;;;;;3.83;3.17;;;;;;;;;;5012359;28;20046;-86
2023/08/28 06:59:46;;;;;;;5.55;3.10;;;;;;;;;;5030536;28;20089;-84
2023/08/28 07:02:38;;;;;;;4.95;3.00;;;;;;;;;;5045650;28;20037;-86
2023/08/28 07:05:30;;;;;;;4.53;3.03;;;;;;;;;;5046257;28;20068;-85
2023/08/28 07:11:34;;;;;;;4.78;2.17;;;;;;;;;;5296415;22;20262;-86
2023/08/28 07:14:26;;;;;;;6.05;2.85;;;;;;;;;;5008095;28;20041;-86
2023/08/28 07:17:30;;;;;;;5.20;2.47;;;;;;;;;;5020773;28;20044;-85
2023/08/28 07:20:17;;;;;;;3.00;2.38;;;;;;;;;;5003095;28;20050;-86
2023/08/28 07:23:20;;;;;;;2.63;2.35;;;;;;;;;;5033470;28;20034;-86
2023/08/28 07:26:23;;;;;;;4.78;2.30;;;;;;;;;;4980760;28;20110;-88
2023/08/28 07:29:41;;;;;;;6.30;2.50;;;;;;;;;;4992228;28;20073;-87
2023/08/28 07:36:11;;;;;;;3.35;2.10;;;;;;;;;;4989977;28;20048;-85
2023/08/28 07:38:53;;;;;;;4.60;2.33;;;;;;;;;;4970400;28;20082;-86
2023/08/28 07:41:43;;;;;;;4.07;2.97;;;;;;;;;;4969431;28;20095;-85
2023/08/28 07:44:56;;;;;;;4.50;2.22;;;;;;;;;;4970956;28;20068;-86
2023/08/28 07:47:44;;;;;;;5.30;1.60;;;;;;;;;;4975750;28;20097;-86
2023/08/28 07:50:45;;;;;;;4.38;2.28;;;;;;;;;;4995183;28;20050;-88
2023/08/28 07:53:59;;;;;;;8.10;2.10;;;;;;;;;;4977013;28;20038;-88
2023/08/28 07:56:45;;;;;;;4.55;2.03;;;;;;;;;;4977683;28;20101;-88
2023/08/28 07:59:44;;;;;;;7.18;1.92;;;;;;;;;;4974480;28;20035;-88
2023/08/28 08:05:44;;;;;;;2.50;1.63;;;;;;;;;;4952969;29;20067;-90
2023/08/28 08:31:15;;;;;;;1.75;1.15;;;;;;;;;;5054388;28;20080;-90
2023/08/28 08:34:08;;;;;;;1.85;0.90;;;;;;;;;;4964979;29;20050;-91
2023/08/28 08:46:45;;;;;;;2.25;0.70;;;;;;;;;;5056582;28;20132;-89
2023/08/28 08:50:04;;;;;;;2.92;0.90;;;;;;;;;;5053670;28;20095;-88
2023/08/28 08:53:06;;;;;;;2.47;0.68;;;;;;;;;;5031892;28;20073;-88
2023/08/28 08:56:14;;;;;;;2.72;0.50;;;;;;;;;;5033619;28;20076;-89
2023/08/28 08:58:55;;;;;;;1.38;0.47;;;;;;;;;;5036807;28;20049;-89
2023/08/28 09:01:40;;;;;;;2.28;0.80;;;;;;;;;;5036623;28;20089;-90
2023/08/28 14:16:15;;;;;;;;;;;;;;;;;;;;;
2023/08/28 14:19:00;;;;;;;2.70;0.60;;;;;;;;;;4931570;29;20071;-89
2023/08/28 14:33:55;;;;;;;1.42;0.45;;;;;;;;;;4995800;28;20042;-90
2023/08/28 14:39:22;;;;;;;0.63;0.28;;;;;;;;;;5184574;23;20050;-88
2023/08/28 14:56:25;;;;;;;0.95;0.50;;;;;;;;;;5772196;23;20103;-91
2023/08/28 14:59:18;;;;;;;1.40;0.47;;;;;;;;;;4961431;28;20043;-89
2023/08/28 16:07:26;;;;;;;;;;;;;;;;;;;;;
2023/08/28 16:10:22;;;;;;;2.03;0.60;;;;;;;;;;4965191;28;20110;-93
2023/08/28 16:45:03;;;;;;;1.30;0.47;;;;;;;;;;3645973;23;20327;31
2023/08/28 16:51:47;;;;;;;0.85;0.40;;;;;;;;;;6001821;23;20029;-91
2023/08/28 17:03:23;;;;;;;;;;;;;;;;;;;;;
2023/08/28 17:06:18;;;;;;;3.15;1.02;;;;;;;;;;5312572;23;20056;-90
2023/08/28 17:53:56;;;;;;;3.80;1.25;;;;;;;;;;834219;26;20314;-91
2023/08/28 18:08:03;;;;;;;5.55;1.83;;;;;;;;;;5619086;23;20055;-90
2023/08/28 21:02:06;;;;;;;2.42;1.42;;;;;;;;;;5049936;23;20054;-86
2023/08/28 21:23:24;;;;;;;3.97;1.27;;;;;;;;;;535600;28;20301;-85
2023/08/28 21:32:15;;;;;;;2.90;1.20;;;;;;;;;;4906660;26;20113;-86
2023/08/28 21:34:46;;;;;;;6.38;1.15;;;;;;;;;;4945596;29;20055;-86
2023/08/28 21:37:15;;;;;;;4.03;1.83;;;;;;;;;;4944635;29;20134;-86
2023/08/28 21:43:20;;;;;;;2.83;1.40;;;;;;;;;;4965031;29;20037;-87
2023/08/28 21:45:57;;;;;;;2.50;1.00;;;;;;;;;;4948127;29;20055;-87
2023/08/28 21:48:32;;;;;;;2.15;1.35;;;;;;;;;;4950123;29;20395;-86
2023/08/28 21:51:08;;;;;;;4.47;1.38;;;;;;;;;;4953088;29;20123;-86
2023/08/28 21:53:42;;;;;;;6.68;1.65;;;;;;;;;;4954018;29;20043;-86
2023/08/28 21:56:21;;;;;;;2.97;1.30;;;;;;;;;;4955249;28;20031;-86
2023/08/28 21:58:51;;;;;;;6.50;1.60;;;;;;;;;;4952577;29;20313;-86
2023/08/28 22:01:22;;;;;;;4.38;1.50;;;;;;;;;;4949540;29;20079;-86
2023/08/28 22:03:50;;;;;;;4.82;1.70;;;;;;;;;;4947814;29;20113;-85
2023/08/28 22:06:22;;;;;;;10.38;1.70;;;;;;;;;;4961650;29;20134;-85
2023/08/28 22:09:01;;;;;;;3.58;1.90;;;;;;;;;;4944973;29;20047;-86
2023/08/28 22:11:35;;;;;;;5.93;2.63;;;;;;;;;;4946874;29;20043;-85
2023/08/28 22:14:06;;;;;;;6.45;2.13;;;;;;;;;;4946324;28;20069;-86
2023/08/28 22:16:34;;;;;;;6.68;2.40;;;;;;;;;;4959917;29;20183;-86
2023/08/28 22:19:04;;;;;;;5.90;2.90;;;;;;;;;;4945983;29;20051;-86
2023/08/28 22:21:36;;;;;;;6.45;2.90;;;;;;;;;;4945998;29;20051;-85
2023/08/28 22:24:10;;;;;;;3.55;2.00;;;;;;;;;;4944476;28;20115;-86
2023/08/28 22:26:59;;;;;;;6.57;2.08;;;;;;;;;;4946053;29;20095;-86
2023/08/28 22:29:31;;;;;;;6.72;2.17;;;;;;;;;;4947022;29;20208;-87
2023/08/28 22:32:02;;;;;;;8.15;2.42;;;;;;;;;;4961444;28;20054;-87
2023/08/28 22:34:35;;;;;;;3.03;1.98;;;;;;;;;;4947219;28;20291;-87
2023/08/28 22:37:03;;;;;;;3.08;2.10;;;;;;;;;;4946783;28;20331;-86
2023/08/28 22:39:31;;;;;;;3.70;1.73;;;;;;;;;;4948283;29;20153;-87
2023/08/28 22:45:06;;;;;;;2.25;2.03;;;;;;;;;;4969344;29;20038;-86
2023/08/28 22:47:40;;;;;;;4.40;2.03;;;;;;;;;;4968636;29;20114;-85
2023/08/28 22:50:08;;;;;;;5.55;1.80;;;;;;;;;;4968897;29;20107;-86
2023/08/28 22:52:37;;;;;;;3.50;1.88;;;;;;;;;;4969983;29;20055;-87
2023/08/28 22:55:04;;;;;;;3.05;1.95;;;;;;;;;;4967553;29;20063;-87
2023/08/28 22:57:34;;;;;;;6.45;3.90;;;;;;;;;;4968039;29;20075;-86
2023/08/28 23:00:07;;;;;;;5.50;2.53;;;;;;;;;;4953230;29;20047;-87
2023/08/28 23:02:40;;;;;;;8.65;3.28;;;;;;;;;;4958586;29;20043;-87
2023/08/28 23:05:16;;;;;;;4.93;3.83;;;;;;;;;;4956124;29;20043;-87
2023/08/28 23:07:53;;;;;;;5.38;3.60;;;;;;;;;;4954484;29;20087;-86
2023/08/28 23:10:24;;;;;;;7.38;3.60;;;;;;;;;;4956677;29;20074;-85
2023/08/28 23:12:53;;;;;;;6.47;4.00;;;;;;;;;;4973760;29;20058;-85
2023/08/28 23:15:21;;;;;;;8.60;4.68;;;;;;;;;;4972656;29;20284;-86
2023/08/28 23:17:52;;;;;;;6.45;4.53;;;;;;;;;;4953828;29;20051;-86
2023/08/28 23:20:20;;;;;;;7.22;5.68;;;;;;;;;;4969262;28;20055;-86
2023/08/28 23:22:50;;;;;;;12.85;7.03;;;;;;;;;;4968994;29;20118;-86
2023/08/28 23:25:38;;;;;;;10.20;6.63;;;;;;;;;;4969461;29;20066;-86
2023/08/28 23:28:08;;;;;;;8.38;5.63;;;;;;;;;;4969901;29;20071;-86
2023/08/28 23:30:35;;;;;;;8.13;6.45;;;;;;;;;;4968649;28;20051;-86
2023/08/28 23:33:06;;;;;;;9.15;7.13;;;;;;;;;;4967167;29;20055;-86
2023/08/28 23:35:44;;;;;;;;;;;;;;;;;;;;;
2023/08/28 23:38:13;;;;;;;11.60;8.02;;;;;;;;;;4970489;29;20047;-86
2023/08/28 23:40:43;;;;;;;11.00;8.52;;;;;;;;;;4951852;29;20047;-86
2023/08/28 23:43:17;;;;;;;;;;;;;;;;;;4968125;29;20252;-86
2023/08/28 23:45:48;;;;;;;10.10;7.68;;;;;;;;;;4951013;29;19927;-86
2023/08/28 23:48:27;;;;;;;10.27;8.52;;;;;;;;;;4966206;29;20062;-86
2023/08/28 23:51:16;;;;;;;12.60;10.05;;;;;;;;;;4949342;29;20074;-86
2023/08/28 23:53:47;;;;;;;13.02;9.30;;;;;;;;;;4948434;29;20106;-86
2023/08/28 23:56:14;;;;;;;10.70;9.18;;;;;;;;;;4949521;29;20059;-86
2023/08/28 23:58:45;;;;;;;10.13;8.27;;;;;;;;;;4949031;29;20146;-86
